createdAt,value
2022-08-31T00:00:53.657Z,20.82
2022-08-31T00:01:56.181Z,20.77
2022-08-31T00:02:55.640Z,20.68
2022-08-31T00:04:00.715Z,20.68
2022-08-31T00:04:54.678Z,20.79
2022-08-31T00:05:50.719Z,20.75
2022-08-31T00:06:47.639Z,20.71
2022-08-31T00:07:47.795Z,20.80
2022-08-31T00:08:43.621Z,20.77
2022-08-31T00:09:24.658Z,20.82
2022-08-31T00:10:13.883Z,20.76
2022-08-31T00:10:55.680Z,20.85
2022-08-31T00:11:37.545Z,20.89
2022-08-31T00:12:17.652Z,20.77
2022-08-31T00:12:57.754Z,20.89
2022-08-31T00:13:37.644Z,20.87
2022-08-31T00:14:17.752Z,20.79
2022-08-31T00:14:58.673Z,20.86
2022-08-31T00:15:38.746Z,20.68
2022-08-31T00:16:19.738Z,20.81
2022-08-31T00:17:00.717Z,20.78
2022-08-31T00:17:40.640Z,20.83
2022-08-31T00:18:21.756Z,20.85
2022-08-31T00:19:01.678Z,20.85
2022-08-31T00:19:41.688Z,20.86
2022-08-31T00:20:33.706Z,20.75
2022-08-31T00:21:14.669Z,20.84
2022-08-31T00:21:54.658Z,20.75
2022-08-31T00:22:34.680Z,20.81
2022-08-31T00:23:18.789Z,20.85
2022-08-31T00:24:00.742Z,20.84
2022-08-31T00:24:41.654Z,20.88
2022-08-31T00:25:21.734Z,20.92
2022-08-31T00:26:02.697Z,20.88
2022-08-31T00:26:43.861Z,20.92
2022-08-31T00:27:23.633Z,20.93
2022-08-31T00:28:03.713Z,20.87
2022-08-31T00:28:43.600Z,20.81
2022-08-31T00:29:25.744Z,20.70
2022-08-31T00:30:05.634Z,20.63
2022-08-31T00:30:46.690Z,20.63
2022-08-31T00:31:26.815Z,20.63
2022-08-31T00:32:07.740Z,20.60
2022-08-31T00:32:48.629Z,20.42
2022-08-31T00:33:31.661Z,20.42
2022-08-31T00:34:12.592Z,20.32
2022-08-31T00:34:52.806Z,20.49
2022-08-31T00:35:34.597Z,20.51
2022-08-31T00:36:19.682Z,20.53
2022-08-31T00:37:00.645Z,20.53
2022-08-31T00:37:40.697Z,20.54
2022-08-31T00:38:21.595Z,20.67
2022-08-31T00:39:02.713Z,20.62
2022-08-31T00:39:42.595Z,20.71
2022-08-31T00:40:22.799Z,20.53
2022-08-31T00:41:02.589Z,20.61
2022-08-31T00:41:44.784Z,20.57
2022-08-31T00:42:25.668Z,20.67
2022-08-31T00:43:07.704Z,20.59
2022-08-31T00:43:50.642Z,20.54
2022-08-31T00:44:30.709Z,20.46
2022-08-31T00:45:13.653Z,20.43
2022-08-31T00:45:53.725Z,20.35
2022-08-31T00:46:38.649Z,20.45
2022-08-31T00:47:18.718Z,20.36
2022-08-31T00:47:59.670Z,20.39
2022-08-31T00:48:43.010Z,20.48
2022-08-31T00:49:38.630Z,20.45
2022-08-31T00:50:34.636Z,20.53
2022-08-31T00:51:28.640Z,20.53
2022-08-31T00:52:39.595Z,20.55
2022-08-31T00:53:19.673Z,20.38
2022-08-31T00:54:00.676Z,20.57
2022-08-31T00:54:44.607Z,20.55
2022-08-31T00:55:54.659Z,20.62
2022-08-31T00:56:37.675Z,20.45
2022-08-31T00:57:20.916Z,20.24
2022-08-31T00:58:17.594Z,20.36
2022-08-31T00:58:58.617Z,20.43
2022-08-31T00:59:33.696Z,20.37
2022-08-31T01:00:27.568Z,20.29
2022-08-31T01:01:01.698Z,20.37
2022-08-31T01:01:49.745Z,20.24
2022-08-31T01:02:24.706Z,20.30
2022-08-31T01:03:14.646Z,20.29
2022-08-31T01:03:55.672Z,20.28
2022-08-31T01:04:50.622Z,20.20
2022-08-31T01:05:45.602Z,20.29
2022-08-31T01:06:40.611Z,20.24
2022-08-31T01:07:34.590Z,20.32
2022-08-31T01:08:31.051Z,20.25
2022-08-31T01:09:19.636Z,20.19
2022-08-31T01:09:55.540Z,20.06
2022-08-31T01:10:46.605Z,20.09
2022-08-31T01:11:21.737Z,20.13
2022-08-31T01:12:09.601Z,20.12
2022-08-31T01:12:43.627Z,20.04
2022-08-31T01:13:32.590Z,20.16
2022-08-31T01:14:08.244Z,20.05
2022-08-31T01:14:49.648Z,20.09
2022-08-31T01:15:30.712Z,20.15
2022-08-31T01:16:17.716Z,20.17
2022-08-31T01:17:01.641Z,20.23
2022-08-31T01:17:43.586Z,20.27
2022-08-31T01:18:24.700Z,20.13
2022-08-31T01:19:06.570Z,20.20
2022-08-31T01:20:12.592Z,20.17
2022-08-31T01:21:23.598Z,20.18
2022-08-31T01:22:42.609Z,20.06
2022-08-31T01:23:53.600Z,20.02
2022-08-31T01:24:48.595Z,20.10
2022-08-31T01:25:36.594Z,20.16
2022-08-31T01:26:11.676Z,20.06
2022-08-31T01:26:59.609Z,20.14
2022-08-31T01:27:37.648Z,20.19
2022-08-31T01:28:24.593Z,20.02
2022-08-31T01:29:01.628Z,19.94
2022-08-31T01:29:48.604Z,19.99
2022-08-31T01:30:31.702Z,20.03
2022-08-31T01:31:30.680Z,20.10
2022-08-31T01:32:12.699Z,20.13
2022-08-31T01:32:52.563Z,20.17
2022-08-31T01:33:33.640Z,20.09
2022-08-31T01:34:14.657Z,20.16
2022-08-31T01:34:54.637Z,20.13
2022-08-31T01:36:16.688Z,20.17
2022-08-31T01:36:58.593Z,20.19
2022-08-31T01:37:38.627Z,20.19
2022-08-31T01:38:20.579Z,20.12
2022-08-31T01:39:01.629Z,20.18
2022-08-31T01:39:41.610Z,20.22
2022-08-31T01:40:21.689Z,20.16
2022-08-31T01:41:05.569Z,20.26
2022-08-31T01:41:45.667Z,20.15
2022-08-31T01:42:33.309Z,20.16
2022-08-31T01:43:14.673Z,20.09
2022-08-31T01:43:55.593Z,20.04
2022-08-31T01:44:35.641Z,20.19
2022-08-31T01:45:17.605Z,20.19
2022-08-31T01:46:00.100Z,20.15
2022-08-31T01:46:40.610Z,20.11
2022-08-31T01:47:21.129Z,20.05
2022-08-31T01:48:06.684Z,20.16
2022-08-31T01:48:52.444Z,20.20
2022-08-31T01:49:33.605Z,20.16
2022-08-31T01:50:14.645Z,20.21
2022-08-31T01:50:55.533Z,20.14
2022-08-31T01:51:35.665Z,20.15
2022-08-31T01:52:15.574Z,20.25
2022-08-31T01:52:55.606Z,20.18
2022-08-31T01:53:36.602Z,20.21
2022-08-31T01:54:18.694Z,20.28
2022-08-31T01:54:59.569Z,20.22
2022-08-31T01:55:39.646Z,20.16
2022-08-31T01:56:24.559Z,20.21
2022-08-31T01:57:04.628Z,20.01
2022-08-31T01:57:44.546Z,20.08
2022-08-31T01:58:24.662Z,20.00
2022-08-31T01:59:08.442Z,20.03
2022-08-31T01:59:48.596Z,20.03
2022-08-31T02:00:29.572Z,19.96
2022-08-31T02:01:26.291Z,20.05
2022-08-31T02:02:10.665Z,20.03
2022-08-31T02:02:50.668Z,20.09
2022-08-31T02:03:30.543Z,20.07
2022-08-31T02:05:13.548Z,20.08
2022-08-31T02:06:07.568Z,20.09
2022-08-31T02:07:04.550Z,20.09
2022-08-31T02:07:59.573Z,19.98
2022-08-31T02:08:54.546Z,20.01
2022-08-31T02:09:41.627Z,19.96
2022-08-31T02:10:16.613Z,19.95
2022-08-31T02:11:03.522Z,19.84
2022-08-31T02:11:37.661Z,19.85
2022-08-31T02:12:24.581Z,19.85
2022-08-31T02:12:58.618Z,19.87
2022-08-31T02:13:45.587Z,19.75
2022-08-31T02:14:20.686Z,19.71
2022-08-31T02:15:01.565Z,19.70
2022-08-31T02:15:41.607Z,19.76
2022-08-31T02:16:21.602Z,19.80
2022-08-31T02:17:01.603Z,19.86
2022-08-31T02:17:42.562Z,19.84
2022-08-31T02:18:24.618Z,19.85
2022-08-31T02:19:05.526Z,19.91
2022-08-31T02:19:45.602Z,19.93
2022-08-31T02:20:26.595Z,19.79
2022-08-31T02:21:06.656Z,19.78
2022-08-31T02:21:47.575Z,19.84
2022-08-31T02:22:27.599Z,19.88
2022-08-31T02:23:09.520Z,19.83
2022-08-31T02:23:49.645Z,19.88
2022-08-31T02:24:29.564Z,19.82
2022-08-31T02:25:10.642Z,19.85
2022-08-31T02:25:51.559Z,19.87
2022-08-31T02:26:32.660Z,19.73
2022-08-31T02:27:13.521Z,19.78
2022-08-31T02:27:53.597Z,19.65
2022-08-31T02:28:33.554Z,19.65
2022-08-31T02:29:14.904Z,19.77
2022-08-31T02:29:54.537Z,19.61
2022-08-31T02:30:35.757Z,19.61
2022-08-31T02:31:15.601Z,19.65
2022-08-31T02:31:58.508Z,19.68
2022-08-31T02:32:39.517Z,19.72
2022-08-31T02:33:20.657Z,19.82
2022-08-31T02:34:00.572Z,19.75
2022-08-31T02:34:41.050Z,19.75
2022-08-31T02:35:22.533Z,19.67
2022-08-31T02:36:17.548Z,19.73
2022-08-31T02:37:11.540Z,19.78
2022-08-31T02:38:05.553Z,19.74
2022-08-31T02:38:59.516Z,19.75
2022-08-31T02:39:53.519Z,19.82
2022-08-31T02:40:47.658Z,19.74
2022-08-31T02:41:36.604Z,19.79
2022-08-31T02:42:10.629Z,19.82
2022-08-31T02:42:57.537Z,19.84
2022-08-31T02:43:31.563Z,19.77
2022-08-31T02:44:18.531Z,19.79
2022-08-31T02:44:52.675Z,19.76
2022-08-31T02:45:39.561Z,19.75
2022-08-31T02:46:13.641Z,19.78
2022-08-31T02:47:00.564Z,19.79
2022-08-31T02:47:34.901Z,19.78
2022-08-31T02:48:21.554Z,19.77
2022-08-31T02:48:55.572Z,19.80
2022-08-31T02:49:42.496Z,19.75
2022-08-31T02:50:16.576Z,19.78
2022-08-31T02:51:12.495Z,19.60
2022-08-31T02:51:48.619Z,19.67
2022-08-31T02:52:30.565Z,19.62
2022-08-31T02:53:10.666Z,19.65
2022-08-31T02:53:51.494Z,19.65
2022-08-31T02:54:32.564Z,19.75
2022-08-31T02:55:13.504Z,19.61
2022-08-31T02:55:53.598Z,19.61
2022-08-31T02:56:33.511Z,19.51
2022-08-31T02:57:13.626Z,19.64
2022-08-31T02:57:54.509Z,19.65
2022-08-31T02:58:35.570Z,19.58
2022-08-31T02:59:16.501Z,19.65
2022-08-31T02:59:56.586Z,19.40
2022-08-31T03:00:37.517Z,19.48
2022-08-31T03:01:17.593Z,19.46
2022-08-31T03:01:59.568Z,19.49
2022-08-31T03:02:41.138Z,19.49
2022-08-31T03:03:22.557Z,19.44
2022-08-31T03:04:03.602Z,19.43
2022-08-31T03:04:43.472Z,19.48
2022-08-31T03:05:24.652Z,19.51
2022-08-31T03:06:04.511Z,19.51
2022-08-31T03:06:44.589Z,19.32
2022-08-31T03:07:25.511Z,19.43
2022-08-31T03:08:05.648Z,19.53
2022-08-31T03:08:45.684Z,19.57
2022-08-31T03:09:26.581Z,19.55
2022-08-31T03:10:07.534Z,19.48
2022-08-31T03:10:47.540Z,19.44
2022-08-31T03:11:27.478Z,19.46
2022-08-31T03:12:07.563Z,19.47
2022-08-31T03:12:48.518Z,19.47
2022-08-31T03:13:29.836Z,19.49
2022-08-31T03:14:09.528Z,19.44
2022-08-31T03:14:49.578Z,19.46
2022-08-31T03:15:30.523Z,19.39
2022-08-31T03:16:11.610Z,19.30
2022-08-31T03:16:52.471Z,19.36
2022-08-31T03:17:32.574Z,19.46
2022-08-31T03:18:13.513Z,19.46
2022-08-31T03:18:54.573Z,19.32
2022-08-31T03:19:35.564Z,19.39
2022-08-31T03:20:17.600Z,19.35
2022-08-31T03:20:57.475Z,19.27
2022-08-31T03:21:37.537Z,19.32
2022-08-31T03:22:19.485Z,19.28
2022-08-31T03:23:03.060Z,19.32
2022-08-31T03:23:45.480Z,19.26
2022-08-31T03:24:27.131Z,19.30
2022-08-31T03:25:08.523Z,19.29
2022-08-31T03:25:48.535Z,19.33
2022-08-31T03:26:28.483Z,19.33
2022-08-31T03:27:08.577Z,19.10
2022-08-31T03:27:48.467Z,19.17
2022-08-31T03:28:28.552Z,19.12
2022-08-31T03:29:08.490Z,19.18
2022-08-31T03:29:48.546Z,19.11
2022-08-31T03:30:31.541Z,19.12
2022-08-31T03:31:17.602Z,19.06
2022-08-31T03:31:57.473Z,19.16
2022-08-31T03:32:37.539Z,19.15
2022-08-31T03:33:18.589Z,19.09
2022-08-31T03:33:59.162Z,19.01
2022-08-31T03:34:39.478Z,19.04
2022-08-31T03:35:19.550Z,19.09
2022-08-31T03:36:00.521Z,19.06
2022-08-31T03:36:41.524Z,18.97
2022-08-31T03:37:21.483Z,18.97
2022-08-31T03:38:02.596Z,19.02
2022-08-31T03:38:42.458Z,18.99
2022-08-31T03:39:22.598Z,18.99
2022-08-31T03:40:02.524Z,18.87
2022-08-31T03:40:42.616Z,18.97
2022-08-31T03:41:29.542Z,19.00
2022-08-31T03:42:11.551Z,18.93
2022-08-31T03:42:52.436Z,18.99
2022-08-31T03:43:32.560Z,19.03
2022-08-31T03:44:12.464Z,19.02
2022-08-31T03:44:53.650Z,18.94
2022-08-31T03:45:35.492Z,19.00
2022-08-31T03:46:15.570Z,18.97
2022-08-31T03:46:57.491Z,18.89
2022-08-31T03:47:42.758Z,18.96
2022-08-31T03:48:25.444Z,18.87
2022-08-31T03:49:07.680Z,18.84
2022-08-31T03:49:47.440Z,18.81
2022-08-31T03:50:27.977Z,18.72
2022-08-31T03:51:08.487Z,18.80
2022-08-31T03:52:02.527Z,18.83
2022-08-31T03:52:56.488Z,18.90
2022-08-31T03:53:50.465Z,18.91
2022-08-31T03:54:44.447Z,18.97
2022-08-31T03:55:38.449Z,18.94
2022-08-31T03:56:33.446Z,18.96
2022-08-31T03:57:20.478Z,19.04
2022-08-31T03:57:54.553Z,19.10
2022-08-31T03:58:43.670Z,19.02
2022-08-31T03:59:17.529Z,19.03
2022-08-31T04:00:05.459Z,18.83
2022-08-31T04:00:39.544Z,18.86
2022-08-31T04:01:26.537Z,18.78
2022-08-31T04:02:00.623Z,18.93
2022-08-31T04:02:45.517Z,18.88
2022-08-31T04:03:26.587Z,18.83
2022-08-31T04:04:06.463Z,18.84
2022-08-31T04:04:46.572Z,18.93
2022-08-31T04:05:27.642Z,18.91
2022-08-31T04:06:07.520Z,18.87
2022-08-31T04:06:50.455Z,18.88
2022-08-31T04:07:30.554Z,18.70
2022-08-31T04:08:25.460Z,18.61
2022-08-31T04:09:05.705Z,18.82
2022-08-31T04:09:45.427Z,18.89
2022-08-31T04:10:25.495Z,18.86
2022-08-31T04:11:05.438Z,18.84
2022-08-31T04:11:52.152Z,18.82
2022-08-31T04:12:32.453Z,18.83
2022-08-31T04:13:12.692Z,18.75
2022-08-31T04:13:53.532Z,18.73
2022-08-31T04:14:33.673Z,18.52
2022-08-31T04:15:15.462Z,18.66
2022-08-31T04:15:55.572Z,18.62
2022-08-31T04:16:35.442Z,18.62
2022-08-31T04:17:19.546Z,18.55
2022-08-31T04:17:59.461Z,18.60
2022-08-31T04:18:40.500Z,18.66
2022-08-31T04:19:22.456Z,18.56
2022-08-31T04:20:02.576Z,18.61
2022-08-31T04:20:44.408Z,18.61
2022-08-31T04:21:31.757Z,18.55
2022-08-31T04:22:11.420Z,18.53
2022-08-31T04:22:51.488Z,18.67
2022-08-31T04:23:35.424Z,18.58
2022-08-31T04:24:15.502Z,18.57
2022-08-31T04:24:56.440Z,18.56
2022-08-31T04:25:36.550Z,18.54
2022-08-31T04:26:44.444Z,18.66
2022-08-31T04:27:24.506Z,18.60
2022-08-31T04:28:05.400Z,18.64
2022-08-31T04:28:46.489Z,18.63
2022-08-31T04:29:27.400Z,18.73
2022-08-31T04:30:14.470Z,18.66
2022-08-31T04:31:08.490Z,18.70
2022-08-31T04:32:02.429Z,18.67
2022-08-31T04:32:57.413Z,18.70
2022-08-31T04:33:53.414Z,18.65
2022-08-31T04:34:48.425Z,18.68
2022-08-31T04:35:37.441Z,18.66
2022-08-31T04:36:23.493Z,18.60
2022-08-31T04:37:04.510Z,18.68
2022-08-31T04:37:46.950Z,18.60
2022-08-31T04:38:28.404Z,18.63
2022-08-31T04:39:12.500Z,18.63
2022-08-31T04:39:53.413Z,18.50
2022-08-31T04:40:33.567Z,18.55
2022-08-31T04:41:16.437Z,18.58
2022-08-31T04:41:56.521Z,18.62
2022-08-31T04:42:36.382Z,18.63
2022-08-31T04:43:17.687Z,18.63
2022-08-31T04:44:03.419Z,18.73
2022-08-31T04:44:44.489Z,18.63
2022-08-31T04:45:25.420Z,18.67
2022-08-31T04:46:05.596Z,18.74
2022-08-31T04:46:47.426Z,18.82
2022-08-31T04:47:27.517Z,18.78
2022-08-31T04:48:07.384Z,18.85
2022-08-31T04:48:48.481Z,18.87
2022-08-31T04:49:28.376Z,18.81
2022-08-31T04:50:08.498Z,18.84
2022-08-31T04:50:49.407Z,18.93
2022-08-31T04:51:36.529Z,18.85
2022-08-31T04:52:17.424Z,18.82
2022-08-31T04:53:03.311Z,18.72
2022-08-31T04:53:45.390Z,18.77
2022-08-31T04:54:25.497Z,18.75
2022-08-31T04:55:05.394Z,18.78
2022-08-31T04:55:49.518Z,18.91
2022-08-31T04:56:38.401Z,18.89
2022-08-31T04:57:25.440Z,18.93
2022-08-31T04:58:19.396Z,18.97
2022-08-31T04:59:17.396Z,18.82
2022-08-31T05:00:11.397Z,18.94
2022-08-31T05:01:06.417Z,18.97
2022-08-31T05:02:00.495Z,18.96
2022-08-31T05:02:52.698Z,18.92
2022-08-31T05:03:27.542Z,19.06
2022-08-31T05:04:15.396Z,19.01
2022-08-31T05:04:49.477Z,19.06
2022-08-31T05:05:36.397Z,19.05
2022-08-31T05:06:10.466Z,18.93
2022-08-31T05:06:57.382Z,19.01
2022-08-31T05:07:31.676Z,18.96
2022-08-31T05:08:12.393Z,18.94
2022-08-31T05:08:46.218Z,18.98
2022-08-31T05:09:36.396Z,18.89
2022-08-31T05:10:10.666Z,18.91
2022-08-31T05:10:57.396Z,18.90
2022-08-31T05:11:31.312Z,19.03
2022-08-31T05:12:18.387Z,19.00
2022-08-31T05:12:52.309Z,19.04
2022-08-31T05:13:32.402Z,19.04
2022-08-31T05:14:08.438Z,18.97
2022-08-31T05:14:43.224Z,18.97
2022-08-31T05:15:24.375Z,18.99
2022-08-31T05:15:59.005Z,18.91
2022-08-31T05:16:34.630Z,18.96
2022-08-31T05:17:15.388Z,18.87
2022-08-31T05:17:49.470Z,18.86
2022-08-31T05:18:25.612Z,18.92
2022-08-31T05:19:07.470Z,18.91
2022-08-31T05:19:41.538Z,18.87
2022-08-31T05:20:15.140Z,18.96
2022-08-31T05:20:56.376Z,18.95
2022-08-31T05:21:39.469Z,18.93
2022-08-31T05:22:13.127Z,19.00
2022-08-31T05:22:54.373Z,19.06
2022-08-31T05:23:28.519Z,19.02
2022-08-31T05:24:24.735Z,19.01
2022-08-31T05:25:07.665Z,19.13
2022-08-31T05:25:47.357Z,19.12
2022-08-31T05:26:32.490Z,19.09
2022-08-31T05:27:13.357Z,19.07
2022-08-31T05:27:55.454Z,19.06
2022-08-31T05:28:35.386Z,18.98
2022-08-31T05:29:16.661Z,18.88
2022-08-31T05:29:57.414Z,18.97
2022-08-31T05:30:38.529Z,18.77
2022-08-31T05:31:18.442Z,18.94
2022-08-31T05:31:59.508Z,19.02
2022-08-31T05:32:40.362Z,19.04
2022-08-31T05:33:21.621Z,19.04
2022-08-31T05:34:02.345Z,19.12
2022-08-31T05:34:42.429Z,19.15
2022-08-31T05:35:23.401Z,19.08
2022-08-31T05:36:04.461Z,19.10
2022-08-31T05:36:42.392Z,19.09
2022-08-31T05:37:24.410Z,18.97
2022-08-31T05:38:04.361Z,18.89
2022-08-31T05:38:45.453Z,19.04
2022-08-31T05:39:26.361Z,19.00
2022-08-31T05:40:06.670Z,19.11
2022-08-31T05:40:47.496Z,18.96
2022-08-31T05:41:29.464Z,19.03
2022-08-31T05:42:09.376Z,19.07
2022-08-31T05:42:49.449Z,18.99
2022-08-31T05:43:30.369Z,19.04
2022-08-31T05:44:11.479Z,19.10
2022-08-31T05:44:51.360Z,19.15
2022-08-31T05:45:31.470Z,19.02
2022-08-31T05:46:16.502Z,19.13
2022-08-31T05:47:03.844Z,19.10
2022-08-31T05:47:44.359Z,19.01
2022-08-31T05:48:29.959Z,19.07
2022-08-31T05:49:13.441Z,18.87
2022-08-31T05:49:54.437Z,19.05
2022-08-31T05:50:34.355Z,19.06
2022-08-31T05:51:28.376Z,18.94
2022-08-31T05:52:05.330Z,19.01
2022-08-31T05:52:52.355Z,19.02
2022-08-31T05:53:27.112Z,19.06
2022-08-31T05:54:15.329Z,19.09
2022-08-31T05:54:49.105Z,19.11
2022-08-31T05:55:36.353Z,19.10
2022-08-31T05:56:16.634Z,19.17
2022-08-31T05:57:02.373Z,19.17
2022-08-31T05:57:36.910Z,19.20
2022-08-31T05:58:12.164Z,19.20
2022-08-31T05:58:54.351Z,19.25
2022-08-31T05:59:28.399Z,19.18
2022-08-31T06:00:02.166Z,19.29
2022-08-31T06:00:46.336Z,19.18
2022-08-31T06:01:36.475Z,19.22
2022-08-31T06:02:18.428Z,19.14
2022-08-31T06:02:59.406Z,19.26
2022-08-31T06:03:39.341Z,19.36
2022-08-31T06:04:20.492Z,19.30
2022-08-31T06:05:04.418Z,19.28
2022-08-31T06:05:44.388Z,19.28
2022-08-31T06:06:25.326Z,19.07
2022-08-31T06:07:05.521Z,19.19
2022-08-31T06:07:47.402Z,19.09
2022-08-31T06:08:28.809Z,19.14
2022-08-31T06:09:11.345Z,19.18
2022-08-31T06:09:52.560Z,19.21
2022-08-31T06:10:33.361Z,19.12
2022-08-31T06:11:19.374Z,19.13
2022-08-31T06:12:00.345Z,19.09
2022-08-31T06:12:40.410Z,19.25
2022-08-31T06:13:22.376Z,19.32
2022-08-31T06:14:06.381Z,19.18
2022-08-31T06:14:50.107Z,19.08
2022-08-31T06:15:34.402Z,19.21
2022-08-31T06:16:20.366Z,19.10
2022-08-31T06:17:00.437Z,19.27
2022-08-31T06:17:41.334Z,19.22
2022-08-31T06:18:21.373Z,19.22
2022-08-31T06:19:02.356Z,19.30
2022-08-31T06:19:43.385Z,19.30
2022-08-31T06:20:24.352Z,19.38
2022-08-31T06:21:16.456Z,19.30
2022-08-31T06:21:58.343Z,19.31
2022-08-31T06:22:46.514Z,19.25
2022-08-31T06:23:26.339Z,19.43
2022-08-31T06:24:16.438Z,19.44
2022-08-31T06:24:51.279Z,19.38
2022-08-31T06:25:38.328Z,19.37
2022-08-31T06:26:15.867Z,19.41
2022-08-31T06:27:04.313Z,19.32
2022-08-31T06:27:38.654Z,19.28
2022-08-31T06:28:25.377Z,19.42
2022-08-31T06:29:02.453Z,19.49
2022-08-31T06:29:43.349Z,19.46
2022-08-31T06:30:22.045Z,19.52
2022-08-31T06:30:56.017Z,19.46
2022-08-31T06:31:53.389Z,19.48
2022-08-31T06:32:27.370Z,19.47
2022-08-31T06:33:14.346Z,19.52
2022-08-31T06:33:48.431Z,19.44
2022-08-31T06:34:35.321Z,19.51
2022-08-31T06:35:16.348Z,19.49
2022-08-31T06:36:10.320Z,19.54
2022-08-31T06:37:05.319Z,19.55
2022-08-31T06:37:59.321Z,19.62
2022-08-31T06:38:54.305Z,19.57
2022-08-31T06:39:48.312Z,19.59
2022-08-31T06:40:36.425Z,19.60
2022-08-31T06:41:28.439Z,19.62
2022-08-31T06:42:15.316Z,19.55
2022-08-31T06:42:49.373Z,19.65
2022-08-31T06:43:36.311Z,19.71
2022-08-31T06:44:14.019Z,19.69
2022-08-31T06:45:01.296Z,19.73
2022-08-31T06:45:35.360Z,19.69
2022-08-31T06:46:16.391Z,19.72
2022-08-31T06:46:57.378Z,19.84
2022-08-31T06:47:51.323Z,19.70
2022-08-31T06:48:45.313Z,19.88
2022-08-31T06:49:39.311Z,19.80
2022-08-31T06:50:33.301Z,19.70
2022-08-31T06:51:28.329Z,19.92
2022-08-31T06:52:22.322Z,19.83
2022-08-31T06:53:16.331Z,19.90
2022-08-31T06:55:24.313Z,20.07
2022-08-31T06:56:27.294Z,20.12
2022-08-31T06:57:09.280Z,20.16
2022-08-31T06:57:49.416Z,20.25
2022-08-31T06:58:30.289Z,20.29
2022-08-31T06:59:11.356Z,20.32
2022-08-31T06:59:52.302Z,20.28
2022-08-31T07:00:33.695Z,20.35
2022-08-31T07:01:18.353Z,20.38
2022-08-31T07:02:14.397Z,20.35
2022-08-31T07:02:57.369Z,20.37
2022-08-31T07:03:50.289Z,20.41
2022-08-31T07:04:24.353Z,20.37
2022-08-31T07:05:19.755Z,20.46
2022-08-31T07:05:59.356Z,20.40
2022-08-31T07:06:51.323Z,20.42
2022-08-31T07:07:32.377Z,20.46
2022-08-31T07:08:26.330Z,20.32
2022-08-31T07:09:24.274Z,20.33
2022-08-31T07:10:19.289Z,20.36
2022-08-31T07:11:13.303Z,20.37
2022-08-31T07:12:07.268Z,20.46
2022-08-31T07:12:54.330Z,20.45
2022-08-31T07:13:28.416Z,20.47
2022-08-31T07:14:21.285Z,20.47
2022-08-31T07:14:55.523Z,20.55
2022-08-31T07:15:42.300Z,20.58
2022-08-31T07:16:20.462Z,20.58
2022-08-31T07:17:09.280Z,20.55
2022-08-31T07:17:43.338Z,20.65
2022-08-31T07:18:23.303Z,20.57
2022-08-31T07:19:10.324Z,20.52
2022-08-31T07:19:50.281Z,20.51
2022-08-31T07:20:30.403Z,20.38
2022-08-31T07:21:25.300Z,20.54
2022-08-31T07:22:09.250Z,20.54
2022-08-31T07:22:53.301Z,20.64
2022-08-31T07:23:40.392Z,20.71
2022-08-31T07:24:41.274Z,20.77
2022-08-31T07:25:35.293Z,20.72
2022-08-31T07:26:39.484Z,20.82
2022-08-31T07:27:33.283Z,20.84
2022-08-31T07:28:27.353Z,20.77
2022-08-31T07:29:11.383Z,20.81
2022-08-31T07:29:52.324Z,20.77
2022-08-31T07:30:33.667Z,20.83
2022-08-31T07:31:17.568Z,20.67
2022-08-31T07:31:58.270Z,20.77
2022-08-31T07:32:38.366Z,20.73
2022-08-31T07:33:21.340Z,20.76
2022-08-31T07:34:05.235Z,20.85
2022-08-31T07:34:57.323Z,20.80
2022-08-31T07:35:40.798Z,20.91
2022-08-31T07:36:23.277Z,20.84
2022-08-31T07:37:23.896Z,20.88
2022-08-31T07:38:23.262Z,20.88
2022-08-31T07:39:21.831Z,21.03
2022-08-31T07:40:22.413Z,21.07
2022-08-31T07:41:21.658Z,20.99
2022-08-31T07:42:17.251Z,21.08
2022-08-31T07:43:02.060Z,21.06
2022-08-31T07:43:43.285Z,21.10
2022-08-31T07:44:25.523Z,21.03
2022-08-31T07:45:14.297Z,21.13
2022-08-31T07:45:54.335Z,21.24
2022-08-31T07:46:31.984Z,21.16
2022-08-31T07:47:20.261Z,21.20
2022-08-31T07:48:00.402Z,21.23
2022-08-31T07:48:47.260Z,21.23
2022-08-31T07:49:22.409Z,21.25
2022-08-31T07:50:09.246Z,21.13
2022-08-31T07:50:46.634Z,21.17
2022-08-31T07:51:29.264Z,21.17
2022-08-31T07:52:11.319Z,21.28
2022-08-31T07:53:00.248Z,21.27
2022-08-31T07:53:47.567Z,21.21
2022-08-31T07:54:31.293Z,21.30
2022-08-31T07:55:12.358Z,21.27
2022-08-31T07:55:54.236Z,21.33
2022-08-31T07:56:41.281Z,21.35
2022-08-31T07:57:37.268Z,21.29
2022-08-31T07:58:32.276Z,21.33
2022-08-31T07:59:26.293Z,21.32
2022-08-31T08:00:21.491Z,21.39
2022-08-31T08:01:15.266Z,21.41
2022-08-31T08:02:03.454Z,21.42
2022-08-31T08:02:38.303Z,21.35
2022-08-31T08:03:25.289Z,21.44
2022-08-31T08:04:02.096Z,21.47
2022-08-31T08:04:51.262Z,21.43
2022-08-31T08:05:35.409Z,21.41
2022-08-31T08:06:25.317Z,21.44
2022-08-31T08:07:00.376Z,21.40
2022-08-31T08:07:44.284Z,21.48
2022-08-31T08:08:35.308Z,21.50
2022-08-31T08:09:24.874Z,21.52
2022-08-31T08:10:05.417Z,21.55
2022-08-31T08:10:52.081Z,21.56
2022-08-31T08:11:33.468Z,21.66
2022-08-31T08:12:14.239Z,21.72
2022-08-31T08:13:19.420Z,21.68
2022-08-31T08:14:13.252Z,21.65
2022-08-31T08:15:12.241Z,21.70
2022-08-31T08:16:06.425Z,21.65
2022-08-31T08:17:02.255Z,21.73
2022-08-31T08:17:56.345Z,21.70
2022-08-31T08:18:43.344Z,21.79
2022-08-31T08:19:17.368Z,21.77
2022-08-31T08:20:04.238Z,21.67
2022-08-31T08:20:40.308Z,21.74
2022-08-31T08:21:27.249Z,21.78
2022-08-31T08:22:02.812Z,21.75
2022-08-31T08:22:55.689Z,21.76
2022-08-31T08:23:30.318Z,21.82
2022-08-31T08:24:11.247Z,21.83
2022-08-31T08:24:52.318Z,21.88
2022-08-31T08:25:33.289Z,21.82
2022-08-31T08:26:21.816Z,21.87
2022-08-31T08:27:03.228Z,21.79
2022-08-31T08:27:43.386Z,21.80
2022-08-31T08:28:42.591Z,21.72
2022-08-31T08:29:30.356Z,21.75
2022-08-31T08:30:07.343Z,21.77
2022-08-31T08:31:01.469Z,21.71
2022-08-31T08:31:35.436Z,21.80
2022-08-31T08:32:23.241Z,21.66
2022-08-31T08:33:01.260Z,21.65
2022-08-31T08:33:48.248Z,21.67
2022-08-31T08:34:22.365Z,21.68
2022-08-31T08:35:16.232Z,21.72
2022-08-31T08:36:06.513Z,21.76
2022-08-31T08:36:47.235Z,21.72
2022-08-31T08:37:54.290Z,21.81
2022-08-31T08:38:30.263Z,21.82
2022-08-31T08:39:13.400Z,21.88
2022-08-31T08:39:54.232Z,21.74
2022-08-31T08:40:48.294Z,21.90
2022-08-31T08:41:28.333Z,21.86
2022-08-31T08:42:20.240Z,21.90
2022-08-31T08:42:54.304Z,21.88
2022-08-31T08:43:50.046Z,21.87
2022-08-31T08:44:35.471Z,21.98
2022-08-31T08:45:22.239Z,21.95
2022-08-31T08:46:25.244Z,22.03
2022-08-31T08:47:38.395Z,22.06
2022-08-31T08:48:37.215Z,22.21
2022-08-31T08:53:53.279Z,22.34
2022-08-31T08:54:42.492Z,22.36
2022-08-31T08:55:41.200Z,22.39
2022-08-31T08:56:32.788Z,22.38
2022-08-31T08:57:38.205Z,22.30
2022-08-31T08:58:19.150Z,22.37
2022-08-31T08:58:50.238Z,22.39
2022-08-31T08:59:32.281Z,22.37
2022-08-31T09:00:41.201Z,22.28
2022-08-31T09:01:42.225Z,22.31
2022-08-31T09:03:14.296Z,22.44
2022-08-31T09:12:45.227Z,22.43
2022-08-31T09:14:06.207Z,22.40
2022-08-31T09:16:02.271Z,22.47
2022-08-31T09:17:37.189Z,22.44
2022-08-31T09:18:37.232Z,22.61
2022-08-31T09:19:21.742Z,22.57
2022-08-31T09:20:06.181Z,22.59
2022-08-31T09:20:41.329Z,22.64
2022-08-31T09:21:32.187Z,22.69
2022-08-31T09:22:12.237Z,22.69
2022-08-31T09:22:58.192Z,22.73
2022-08-31T09:23:55.258Z,22.78
2022-08-31T09:24:52.038Z,22.75
2022-08-31T09:26:03.931Z,22.96
2022-08-31T09:27:39.184Z,22.95
2022-08-31T09:28:59.209Z,23.07
2022-08-31T09:29:55.196Z,23.08
2022-08-31T09:30:58.255Z,22.99
2022-08-31T09:31:56.027Z,23.16
2022-08-31T09:32:50.177Z,23.17
2022-08-31T09:33:48.191Z,23.11
2022-08-31T09:34:39.256Z,23.02
2022-08-31T09:35:41.381Z,23.05
2022-08-31T09:36:29.181Z,22.94
2022-08-31T09:37:47.245Z,23.05
2022-08-31T09:38:35.180Z,23.04
2022-08-31T09:39:24.904Z,23.05
2022-08-31T09:40:28.263Z,23.13
2022-08-31T09:41:09.244Z,22.99
2022-08-31T09:41:50.185Z,23.12
2022-08-31T09:42:40.307Z,23.18
2022-08-31T09:43:31.198Z,23.24
2022-08-31T09:44:43.274Z,23.11
2022-08-31T09:45:41.284Z,23.25
2022-08-31T09:46:29.306Z,23.23
2022-08-31T09:47:13.144Z,23.15
2022-08-31T09:48:01.226Z,23.23
2022-08-31T09:48:58.200Z,23.34
2022-08-31T09:49:43.949Z,23.31
2022-08-31T09:50:42.205Z,23.37
2022-08-31T09:51:41.241Z,23.27
2022-08-31T09:52:54.165Z,23.17
2022-08-31T09:53:53.725Z,23.22
2022-08-31T09:54:53.146Z,23.33